createdAt,value
2023-11-27T00:01:49.284Z,12.70
2023-11-27T00:04:17.470Z,9.37
2023-11-27T00:06:47.935Z,11.53
2023-11-27T00:09:18.477Z,10.93
2023-11-27T00:11:54.989Z,13.73
2023-11-27T00:14:28.786Z,8.93
2023-11-27T00:16:59.002Z,9.20
2023-11-27T00:19:26.585Z,9.67
2023-11-27T00:21:59.188Z,17.30
2023-11-27T00:24:27.445Z,8.13
2023-11-27T00:26:57.381Z,12.77
2023-11-27T00:29:26.739Z,8.07
2023-11-27T00:31:55.961Z,9.57
2023-11-27T00:34:27.028Z,9.70
2023-11-27T00:37:00.125Z,10.13
2023-11-27T00:39:31.827Z,9.67
2023-11-27T00:42:00.417Z,10.90
2023-11-27T00:44:29.915Z,10.27
2023-11-27T00:46:58.132Z,11.67
2023-11-27T00:49:28.237Z,8.93
2023-11-27T00:51:57.091Z,11.70
2023-11-27T00:54:28.639Z,9.47
2023-11-27T00:56:59.346Z,5.83
2023-11-27T00:59:32.245Z,10.87
2023-11-27T01:02:07.334Z,7.83
2023-11-27T01:04:43.763Z,9.83
2023-11-27T01:07:11.762Z,8.70
2023-11-27T01:09:41.393Z,7.37
2023-11-27T01:12:09.776Z,9.67
2023-11-27T01:14:49.393Z,8.40
2023-11-27T01:17:18.550Z,8.37
2023-11-27T01:19:48.932Z,11.23
2023-11-27T01:22:29.005Z,7.40
2023-11-27T01:24:58.337Z,8.67
2023-11-27T01:27:29.116Z,9.83
2023-11-27T01:29:58.751Z,8.73
2023-11-27T01:32:31.126Z,11.10
2023-11-27T01:34:59.342Z,10.73
2023-11-27T01:37:27.562Z,7.60
2023-11-27T01:39:59.026Z,9.53
2023-11-27T01:42:29.961Z,9.73
2023-11-27T01:45:08.851Z,8.93
2023-11-27T01:47:40.445Z,9.93
2023-11-27T01:50:18.775Z,8.83
2023-11-27T01:53:07.450Z,9.27
2023-11-27T01:55:39.058Z,9.13
2023-11-27T01:58:07.989Z,7.43
2023-11-27T02:00:50.355Z,8.40
2023-11-27T02:03:19.453Z,6.87
2023-11-27T02:05:49.404Z,6.27
2023-11-27T02:08:21.075Z,6.60
2023-11-27T02:10:50.257Z,6.37
2023-11-27T02:13:18.960Z,7.00
2023-11-27T02:15:57.473Z,8.37
2023-11-27T02:18:35.983Z,8.27
2023-11-27T02:21:17.435Z,6.93
2023-11-27T02:23:57.674Z,5.60
2023-11-27T02:26:35.571Z,6.60
2023-11-27T02:29:21.319Z,6.97
2023-11-27T02:31:58.341Z,5.83
2023-11-27T02:34:57.392Z,5.13
2023-11-27T02:37:37.295Z,7.57
2023-11-27T02:40:18.904Z,5.53
2023-11-27T02:43:06.375Z,3.87
2023-11-27T02:45:36.494Z,5.30
2023-11-27T02:48:19.003Z,5.23
2023-11-27T02:51:33.252Z,4.13
2023-11-27T02:54:19.149Z,5.40
2023-11-27T02:56:50.446Z,4.60
2023-11-27T02:59:30.931Z,3.90
2023-11-27T03:02:19.768Z,7.03
2023-11-27T03:04:58.105Z,4.90
2023-11-27T03:07:30.042Z,6.57
2023-11-27T03:10:08.231Z,6.57
2023-11-27T03:12:41.132Z,6.60
2023-11-27T03:15:18.695Z,5.87
2023-11-27T03:17:47.355Z,6.23
2023-11-27T03:20:15.632Z,5.97
2023-11-27T03:22:52.014Z,5.20
2023-11-27T03:25:25.576Z,5.90
2023-11-27T03:28:16.635Z,6.43
2023-11-27T03:31:02.415Z,5.10
2023-11-27T03:33:47.531Z,6.67
2023-11-27T03:36:16.946Z,4.17
2023-11-27T03:38:46.284Z,5.20
2023-11-27T03:41:25.976Z,4.70
2023-11-27T03:44:14.159Z,3.93
2023-11-27T03:46:50.649Z,6.00
2023-11-27T03:49:22.214Z,4.80
2023-11-27T03:51:50.591Z,4.27
2023-11-27T03:54:28.850Z,3.00
2023-11-27T03:57:08.346Z,4.13
2023-11-27T03:59:59.134Z,2.00
2023-11-27T04:03:06.855Z,4.43
2023-11-27T04:05:47.753Z,2.93
2023-11-27T04:11:37.612Z,2.90
2023-11-27T04:14:11.085Z,3.03
2023-11-27T04:19:46.910Z,2.97
2023-11-27T04:22:27.785Z,2.83
2023-11-27T04:25:07.897Z,2.60
2023-11-27T04:28:21.529Z,2.23
2023-11-27T04:30:55.815Z,3.07
2023-11-27T04:33:25.612Z,4.17
2023-11-27T04:36:38.125Z,2.83
2023-11-27T04:39:29.215Z,2.70
2023-11-27T04:42:31.764Z,4.13
2023-11-27T04:45:05.146Z,2.63
2023-11-27T04:47:47.615Z,4.00
2023-11-27T04:50:29.311Z,3.27
2023-11-27T04:53:07.331Z,4.53
2023-11-27T04:55:39.722Z,4.00
2023-11-27T04:58:15.631Z,2.90
2023-11-27T05:00:49.690Z,3.37
2023-11-27T05:03:25.595Z,4.17
2023-11-27T05:06:05.764Z,4.10
2023-11-27T05:08:39.331Z,2.73
2023-11-27T05:11:09.919Z,3.13
2023-11-27T05:13:42.233Z,3.57
2023-11-27T05:16:28.986Z,3.00
2023-11-27T05:19:00.067Z,2.80
2023-11-27T05:21:37.747Z,3.83
2023-11-27T05:24:09.387Z,4.07
2023-11-27T05:26:40.244Z,4.63
2023-11-27T05:29:09.498Z,5.87
2023-11-27T05:31:47.920Z,4.13
2023-11-27T05:34:29.875Z,5.00
2023-11-27T05:37:18.130Z,4.37
2023-11-27T05:39:54.435Z,6.33
2023-11-27T05:42:28.249Z,4.60
2023-11-27T05:45:01.283Z,4.93
2023-11-27T05:47:57.108Z,4.13
2023-11-27T05:50:29.050Z,7.33
2023-11-27T05:53:00.588Z,8.63
2023-11-27T05:55:39.166Z,5.60
2023-11-27T05:58:09.814Z,4.63
2023-11-27T06:00:39.671Z,5.10
2023-11-27T06:03:09.925Z,4.63
2023-11-27T06:05:39.627Z,4.90
2023-11-27T06:08:17.704Z,6.00
2023-11-27T06:10:48.505Z,6.30
2023-11-27T06:13:20.037Z,7.37
2023-11-27T06:16:00.169Z,5.17
2023-11-27T06:18:30.057Z,4.63
2023-11-27T06:21:27.296Z,5.63
2023-11-27T06:24:08.080Z,7.57
2023-11-27T06:26:39.784Z,4.60
2023-11-27T06:29:30.073Z,4.43
2023-11-27T06:32:10.176Z,4.90
2023-11-27T06:34:48.239Z,5.47
2023-11-27T06:37:19.545Z,5.07
2023-11-27T06:39:58.491Z,4.63
2023-11-27T06:42:38.995Z,4.90
2023-11-27T06:45:19.270Z,4.30
2023-11-27T06:47:54.214Z,6.00
2023-11-27T06:50:30.215Z,5.43
2023-11-27T06:52:59.736Z,4.20
2023-11-27T06:55:38.069Z,6.80
2023-11-27T06:58:49.247Z,4.87
2023-11-27T07:01:30.721Z,4.80
2023-11-27T07:04:09.500Z,5.23
2023-11-27T07:07:12.968Z,9.47
2023-11-27T07:09:34.082Z,4.70
2023-11-27T07:12:10.699Z,9.20
2023-11-27T07:14:39.728Z,6.67
2023-11-27T07:17:17.428Z,6.30
2023-11-27T07:19:49.439Z,6.83
2023-11-27T07:22:20.510Z,6.90
2023-11-27T07:24:56.675Z,8.23
2023-11-27T07:27:29.915Z,5.03
2023-11-27T07:29:59.890Z,7.10
2023-11-27T07:32:38.733Z,5.83
2023-11-27T07:35:11.254Z,5.13
2023-11-27T07:37:40.053Z,4.70
2023-11-27T07:40:19.481Z,4.80
2023-11-27T07:42:59.356Z,5.67
2023-11-27T07:45:27.569Z,7.87
2023-11-27T07:48:11.117Z,6.97
2023-11-27T07:50:39.828Z,3.50
2023-11-27T07:53:16.700Z,3.63
2023-11-27T07:55:49.428Z,7.00
2023-11-27T07:58:24.147Z,4.50
2023-11-27T08:00:54.740Z,4.70
2023-11-27T08:03:41.241Z,3.80
2023-11-27T08:06:47.808Z,3.10
2023-11-27T08:09:00.419Z,4.27
2023-11-27T08:12:00.915Z,3.03
2023-11-27T08:14:41.150Z,3.63
2023-11-27T08:17:10.332Z,3.63
2023-11-27T08:19:48.846Z,3.10
2023-11-27T08:22:20.123Z,2.83
2023-11-27T08:24:58.057Z,3.40
2023-11-27T08:27:29.722Z,5.90
2023-11-27T08:30:09.429Z,3.00
2023-11-27T08:32:41.234Z,5.87
2023-11-27T08:35:16.657Z,6.03
2023-11-27T08:37:48.449Z,3.43
2023-11-27T08:40:31.123Z,3.13
2023-11-27T08:46:11.343Z,3.73
2023-11-27T08:48:39.755Z,3.00
2023-11-27T08:51:10.082Z,3.27
2023-11-27T08:53:51.261Z,5.00
2023-11-27T08:56:20.193Z,4.07
2023-11-27T08:58:59.560Z,3.77
2023-11-27T09:01:31.432Z,3.20
2023-11-27T09:04:00.363Z,3.13
2023-11-27T09:06:33.235Z,3.87
2023-11-27T09:09:37.899Z,3.80
2023-11-27T09:11:50.625Z,4.43
2023-11-27T09:14:24.410Z,4.23
2023-11-27T09:17:18.698Z,4.63
2023-11-27T09:19:50.818Z,3.40
2023-11-27T09:22:29.559Z,4.50
2023-11-27T09:24:59.107Z,3.90
2023-11-27T09:27:31.087Z,4.83
2023-11-27T09:30:09.408Z,4.00
2023-11-27T09:32:49.387Z,5.47
2023-11-27T09:35:21.190Z,4.23
2023-11-27T09:37:49.345Z,3.67
2023-11-27T09:40:29.212Z,4.93
2023-11-27T09:43:00.792Z,4.30
2023-11-27T09:45:39.474Z,4.07
2023-11-27T09:48:20.706Z,3.33
2023-11-27T09:50:59.048Z,5.23
2023-11-27T09:53:37.078Z,4.27
2023-11-27T09:56:17.495Z,3.87
2023-11-27T09:58:50.756Z,5.07
2023-11-27T10:01:29.333Z,3.47
2023-11-27T10:04:05.912Z,4.47
2023-11-27T10:09:30.834Z,5.10
2023-11-27T10:12:03.735Z,4.40
2023-11-27T10:14:57.530Z,4.63
2023-11-27T10:17:27.919Z,4.43
2023-11-27T10:20:19.964Z,4.20
2023-11-27T10:22:58.187Z,5.67
2023-11-27T10:25:31.182Z,4.70
2023-11-27T10:28:10.143Z,4.87
2023-11-27T10:30:50.880Z,4.60
2023-11-27T10:33:29.061Z,4.10
2023-11-27T10:36:09.270Z,4.80
2023-11-27T10:38:40.395Z,4.67
2023-11-27T10:41:19.001Z,4.33
2023-11-27T10:44:00.401Z,4.90
2023-11-27T10:46:38.247Z,4.57
2023-11-27T10:49:18.621Z,3.67
2023-11-27T10:52:10.959Z,4.17
2023-11-27T10:54:56.072Z,3.90
2023-11-27T10:57:30.982Z,4.00
2023-11-27T11:00:08.383Z,5.67
2023-11-27T11:02:40.649Z,3.33
2023-11-27T11:09:30.943Z,3.53
2023-11-27T11:12:10.510Z,5.33
2023-11-27T11:14:49.071Z,7.77
2023-11-27T11:17:39.543Z,3.63
2023-11-27T11:20:33.173Z,4.27
2023-11-27T11:23:20.729Z,4.30
2023-11-27T11:26:36.834Z,4.33
2023-11-27T11:29:29.808Z,4.13
2023-11-27T11:32:18.981Z,4.07
2023-11-27T11:35:00.653Z,3.30
2023-11-27T11:37:38.899Z,3.53
2023-11-27T11:40:20.564Z,3.87
2023-11-27T11:46:09.670Z,3.70
2023-11-27T11:48:40.913Z,7.00
2023-11-27T11:51:37.774Z,5.87
2023-11-27T11:54:19.603Z,3.77
2023-11-27T11:56:50.730Z,4.67
2023-11-27T11:59:30.191Z,4.50
2023-11-27T12:02:01.807Z,6.33
2023-11-27T12:04:41.056Z,4.10
2023-11-27T12:07:19.399Z,3.77
2023-11-27T12:10:00.914Z,4.07
2023-11-27T12:12:37.810Z,4.80
2023-11-27T12:15:17.562Z,3.77
2023-11-27T12:18:13.908Z,5.20
2023-11-27T12:20:51.532Z,5.27
2023-11-27T12:23:20.491Z,5.03
2023-11-27T12:25:58.696Z,4.63
2023-11-27T12:28:45.914Z,4.70
2023-11-27T12:31:48.344Z,4.83
2023-11-27T12:34:29.693Z,4.27
2023-11-27T12:37:08.696Z,6.57
2023-11-27T12:39:40.377Z,4.83
2023-11-27T12:42:31.218Z,5.30
2023-11-27T12:45:08.617Z,4.77
2023-11-27T12:47:57.701Z,4.87
2023-11-27T12:50:49.516Z,5.13
2023-11-27T12:53:28.533Z,5.07
2023-11-27T12:56:00.378Z,4.67
2023-11-27T12:58:39.078Z,5.63
2023-11-27T13:01:11.061Z,6.20
2023-11-27T13:03:49.684Z,6.13
2023-11-27T13:06:29.095Z,6.70
2023-11-27T13:09:00.496Z,6.97
2023-11-27T13:11:39.349Z,7.17
2023-11-27T13:14:10.375Z,6.17
2023-11-27T13:16:41.566Z,7.00
2023-11-27T13:19:18.482Z,7.63
2023-11-27T13:21:58.759Z,6.10
2023-11-27T13:24:31.655Z,7.27
2023-11-27T13:27:09.561Z,7.10
2023-11-27T13:30:09.328Z,6.93
2023-11-27T13:32:40.016Z,8.53
2023-11-27T13:35:30.954Z,7.17
2023-11-27T13:38:19.234Z,10.93
2023-11-27T13:40:52.862Z,8.23
2023-11-27T13:43:24.492Z,7.70
2023-11-27T13:45:54.234Z,8.53
2023-11-27T13:48:28.760Z,8.57
2023-11-27T13:51:19.144Z,7.90
2023-11-27T13:53:57.996Z,8.53
2023-11-27T13:56:40.116Z,9.03
2023-11-27T13:59:20.318Z,7.37
2023-11-27T14:02:01.048Z,7.67
2023-11-27T14:04:38.400Z,7.93
2023-11-27T14:07:38.723Z,6.30
2023-11-27T14:10:29.242Z,8.73
2023-11-27T14:13:02.749Z,8.10
2023-11-27T14:15:40.863Z,7.33
2023-11-27T14:18:28.723Z,7.80
2023-11-27T14:21:18.245Z,7.70
2023-11-27T14:23:58.159Z,7.20
2023-11-27T14:26:40.113Z,7.07
2023-11-27T14:29:20.043Z,7.83
2023-11-27T14:31:56.175Z,6.80
2023-11-27T14:34:29.081Z,5.53
2023-11-27T14:36:59.948Z,6.43
2023-11-27T14:39:36.604Z,6.07
2023-11-27T14:42:09.790Z,6.10
2023-11-27T14:44:38.163Z,6.33
2023-11-27T14:47:06.934Z,5.37
2023-11-27T14:49:35.129Z,5.53
2023-11-27T14:52:06.090Z,5.50
2023-11-27T14:54:36.396Z,5.30
2023-11-27T14:57:11.104Z,5.03
2023-11-27T14:59:40.268Z,5.93
2023-11-27T15:02:09.596Z,4.73
2023-11-27T15:04:40.496Z,5.23
2023-11-27T15:07:09.966Z,5.27
2023-11-27T15:09:39.557Z,6.47
2023-11-27T15:12:10.602Z,4.80
2023-11-27T15:14:38.947Z,3.77
2023-11-27T15:17:08.879Z,5.27
2023-11-27T15:19:37.139Z,5.27
2023-11-27T15:22:08.778Z,4.70
2023-11-27T15:24:39.347Z,4.03
2023-11-27T15:27:07.503Z,4.90
2023-11-27T15:29:36.807Z,5.43
2023-11-27T15:32:08.539Z,6.27
2023-11-27T15:34:36.848Z,5.80
2023-11-27T15:37:04.874Z,5.53
2023-11-27T15:39:34.630Z,4.90
2023-11-27T15:42:07.753Z,4.93
2023-11-27T15:44:36.083Z,5.87
2023-11-27T15:47:04.206Z,6.50
2023-11-27T15:49:33.347Z,8.13
2023-11-27T15:52:01.734Z,5.17
2023-11-27T15:54:29.975Z,4.97
2023-11-27T15:56:58.308Z,4.67
2023-11-27T15:59:29.639Z,5.17
2023-11-27T16:02:01.064Z,4.70
2023-11-27T16:04:29.196Z,6.70
2023-11-27T16:06:57.288Z,3.90
2023-11-27T16:09:26.410Z,5.00
2023-11-27T16:11:58.773Z,4.87
2023-11-27T16:14:30.502Z,4.27
2023-11-27T16:16:58.454Z,6.60
2023-11-27T16:19:29.448Z,4.60
2023-11-27T16:21:57.388Z,5.00
2023-11-27T16:24:25.422Z,5.13
2023-11-27T16:26:53.564Z,5.60
2023-11-27T16:29:21.664Z,5.10
2023-11-27T16:31:51.268Z,6.17
2023-11-27T16:34:19.955Z,5.33
2023-11-27T16:36:48.585Z,5.70
2023-11-27T16:39:18.624Z,4.83
2023-11-27T16:41:46.691Z,6.73
2023-11-27T16:44:15.447Z,6.47
2023-11-27T16:46:44.718Z,4.20
2023-11-27T16:49:16.028Z,4.40
2023-11-27T16:51:44.016Z,4.37
2023-11-27T16:54:12.156Z,5.70
2023-11-27T16:56:41.015Z,4.63
2023-11-27T16:59:08.919Z,4.97
2023-11-27T17:01:38.117Z,5.70
2023-11-27T17:04:07.105Z,5.27
2023-11-27T17:06:36.850Z,4.23
2023-11-27T17:09:08.931Z,5.93
2023-11-27T17:11:37.750Z,4.90
2023-11-27T17:14:05.882Z,4.50
2023-11-27T17:16:34.031Z,4.37
2023-11-27T17:19:02.256Z,3.90
2023-11-27T17:21:30.182Z,3.77
2023-11-27T17:23:59.829Z,4.20
2023-11-27T17:26:28.058Z,3.60
2023-11-27T17:28:58.029Z,3.57
2023-11-27T17:31:26.118Z,3.83
2023-11-27T17:33:54.089Z,4.10
2023-11-27T17:36:22.030Z,3.77
2023-11-27T17:38:50.200Z,4.30
2023-11-27T17:41:21.209Z,3.23
2023-11-27T17:43:50.416Z,3.93
2023-11-27T17:46:18.819Z,3.63
2023-11-27T17:48:47.886Z,3.13
2023-11-27T17:51:16.104Z,3.53
2023-11-27T17:53:44.262Z,3.33
2023-11-27T17:56:13.175Z,2.50
2023-11-27T17:58:45.271Z,3.33
2023-11-27T18:01:13.846Z,3.17
2023-11-27T18:03:43.989Z,3.47
2023-11-27T18:06:12.632Z,2.80
2023-11-27T18:08:40.665Z,2.90
2023-11-27T18:11:11.797Z,3.23
2023-11-27T18:13:42.183Z,3.40
2023-11-27T18:16:12.774Z,4.17
2023-11-27T18:18:40.852Z,4.50
2023-11-27T18:21:09.390Z,4.03
2023-11-27T18:23:37.459Z,4.20
2023-11-27T18:26:08.333Z,3.60
2023-11-27T18:28:40.337Z,3.67
2023-11-27T18:31:08.784Z,3.87
2023-11-27T18:33:38.201Z,5.17
2023-11-27T18:36:07.170Z,3.20
2023-11-27T18:38:35.312Z,3.77
2023-11-27T18:41:03.397Z,4.17
2023-11-27T18:43:31.428Z,4.23
2023-11-27T18:45:59.419Z,3.87
2023-11-27T18:48:27.613Z,4.20
2023-11-27T18:50:58.441Z,3.57
2023-11-27T18:53:26.861Z,5.40
2023-11-27T18:55:54.870Z,4.13
2023-11-27T18:58:23.411Z,4.57
2023-11-27T19:00:53.357Z,3.10
2023-11-27T19:03:21.558Z,4.00
2023-11-27T19:05:49.640Z,3.20
2023-11-27T19:08:19.195Z,3.73
2023-11-27T19:10:47.365Z,3.23
2023-11-27T19:13:17.894Z,4.27
2023-11-27T19:15:52.459Z,4.87
2023-11-27T19:18:20.729Z,4.77
2023-11-27T19:20:48.804Z,2.67
2023-11-27T19:23:18.135Z,3.80
2023-11-27T19:25:46.314Z,3.17
2023-11-27T19:28:15.155Z,4.47
2023-11-27T19:30:47.701Z,4.67
2023-11-27T19:33:15.883Z,4.07
2023-11-27T19:35:43.895Z,4.17
2023-11-27T19:38:16.638Z,4.97
2023-11-27T19:40:46.553Z,4.83
2023-11-27T19:43:14.820Z,5.33
2023-11-27T19:45:45.050Z,6.27
2023-11-27T19:48:13.752Z,6.27
2023-11-27T19:50:42.370Z,7.17
2023-11-27T19:53:11.362Z,8.07
2023-11-27T19:55:39.881Z,7.20
2023-11-27T19:58:09.808Z,7.80
2023-11-27T20:00:38.413Z,7.67
2023-11-27T20:03:08.314Z,7.87
2023-11-27T20:05:38.040Z,7.83
2023-11-27T20:08:06.661Z,7.63
2023-11-27T20:10:35.246Z,7.40
2023-11-27T20:13:07.549Z,9.30
2023-11-27T20:15:39.036Z,8.03
2023-11-27T20:18:07.336Z,9.77
2023-11-27T20:20:35.796Z,9.33
2023-11-27T20:23:06.996Z,9.10
2023-11-27T20:25:36.690Z,8.73
2023-11-27T20:28:11.172Z,7.87
2023-11-27T20:30:41.101Z,8.30
2023-11-27T20:33:09.814Z,8.73
2023-11-27T20:35:38.364Z,8.53
2023-11-27T20:38:06.866Z,9.43
2023-11-27T20:40:35.739Z,7.43
2023-11-27T20:43:07.473Z,6.13
2023-11-27T20:45:37.667Z,6.77
2023-11-27T20:48:07.934Z,6.83
2023-11-27T20:50:36.123Z,6.50
2023-11-27T20:53:05.195Z,5.87
2023-11-27T20:55:33.510Z,5.70
2023-11-27T20:58:02.191Z,5.30
2023-11-27T21:00:32.972Z,5.17
2023-11-27T21:03:01.215Z,8.20
2023-11-27T21:05:32.222Z,4.90
2023-11-27T21:08:01.151Z,5.67
2023-11-27T21:10:29.464Z,5.33
2023-11-27T21:12:57.804Z,5.90
2023-11-27T21:15:26.768Z,3.90
2023-11-27T21:17:55.187Z,6.17
2023-11-27T21:20:22.399Z,5.53
2023-11-27T21:22:52.651Z,5.00
2023-11-27T21:25:21.904Z,5.30
2023-11-27T21:27:51.256Z,5.80
2023-11-27T21:30:20.326Z,7.00
2023-11-27T21:32:49.865Z,5.77
2023-11-27T21:35:18.820Z,7.00
2023-11-27T21:37:48.542Z,5.70
2023-11-27T21:40:20.376Z,6.30
2023-11-27T21:42:48.335Z,5.00
2023-11-27T21:45:17.112Z,5.33
2023-11-27T21:47:45.156Z,6.03
2023-11-27T21:50:13.258Z,5.87
2023-11-27T21:52:41.939Z,6.20
2023-11-27T21:55:11.296Z,6.30
2023-11-27T21:57:41.013Z,4.80
2023-11-27T22:00:12.091Z,7.07
2023-11-27T22:02:41.990Z,6.13
2023-11-27T22:05:10.874Z,6.53
2023-11-27T22:07:39.104Z,5.93
2023-11-27T22:10:07.796Z,6.17
2023-11-27T22:12:36.941Z,5.80
2023-11-27T22:15:07.534Z,5.80
2023-11-27T22:17:35.589Z,4.23
2023-11-27T22:20:04.443Z,4.43
2023-11-27T22:22:32.419Z,5.70
2023-11-27T22:25:00.419Z,5.07
2023-11-27T22:27:30.212Z,5.80
2023-11-27T22:30:00.527Z,4.80
2023-11-27T22:32:30.713Z,5.67
2023-11-27T22:34:58.994Z,4.67
2023-11-27T22:37:27.302Z,5.07
2023-11-27T22:39:55.974Z,5.17
2023-11-27T22:42:23.953Z,5.07
2023-11-27T22:44:51.949Z,4.83
2023-11-27T22:47:19.955Z,5.17
2023-11-27T22:49:49.260Z,4.07
2023-11-27T22:52:17.468Z,5.27
2023-11-27T22:54:45.808Z,4.90
2023-11-27T22:57:14.121Z,4.23
2023-11-27T22:59:43.087Z,4.70
2023-11-27T23:02:12.165Z,5.20
2023-11-27T23:04:40.250Z,5.50
2023-11-27T23:07:09.776Z,4.67
2023-11-27T23:09:37.753Z,4.97
2023-11-27T23:12:06.285Z,4.43
2023-11-27T23:14:34.401Z,4.40
2023-11-27T23:17:02.402Z,5.47
2023-11-27T23:19:30.467Z,4.10
2023-11-27T23:21:58.346Z,4.20
2023-11-27T23:24:27.688Z,4.83
2023-11-27T23:26:55.829Z,3.83
2023-11-27T23:29:23.958Z,3.70
2023-11-27T23:31:55.392Z,2.50
2023-11-27T23:34:26.337Z,3.00
2023-11-27T23:36:54.209Z,3.53
2023-11-27T23:39:23.650Z,3.63
2023-11-27T23:41:54.360Z,2.27
2023-11-27T23:44:22.558Z,2.43
2023-11-27T23:46:52.587Z,2.63
2023-11-27T23:49:21.170Z,2.17
2023-11-27T23:51:49.304Z,2.37
2023-11-27T23:54:17.206Z,2.63
2023-11-27T23:56:45.430Z,2.50
2023-11-27T23:59:15.349Z,2.17
